»·PEaware :: N735U KWVI-KMRY

N735U :: KWVI-KMRY

FLIGHT INFORMATION

Flight Status: Arrived
Operator: Privately registered:
United States
More flights under this callsign
Pilot: Jeffrey C. (84)
Aircraft: CESSNA 182 SKYLANE
(C182)
More flights by this aircraft type
Origin: KWVI Watsonville Mun
United States
Destination: KMRY Monterey Peninsula
United States
More flights between these airports :: More routes between these airports
Route: +DIRECT
File this flight plan on PilotEdge
Remarks:
Altitude:
(Current/Filed)
3,000ft
Speed:
(Current/Filed)
140kts
Departed: 26-Jun-11 07:36 PM
Arrived: 26-Jun-11 08:05 PM
Distance/Time
Traveled:
21nm/0:29
Distance/Time
To Go:
Arrived

Flight Plot

Page will automatically refresh every two minutes.


Map Options




Map Legend


Flown Route
Filed Route
Departure Airport
Arrival Airport
Navaid (VOR, NDB)
Fix

Horizontal Profiles

Position Reports

Time Latitude Longitude Heading Altitude Ground
Speed
26-Jun-11 19:02 36.938819 -121.786397 271 140ft 0kts
26-Jun-11 19:03 36.938819 -121.786397 271 140ft 0kts
26-Jun-11 19:04 36.938819 -121.786397 271 140ft 0kts
26-Jun-11 19:05 36.938819 -121.786397 271 140ft 0kts
26-Jun-11 19:06 36.938819 -121.786397 271 140ft 0kts
26-Jun-11 19:07 36.938819 -121.786397 271 140ft 0kts
26-Jun-11 19:08 36.938819 -121.786397 271 140ft 0kts
26-Jun-11 19:09 36.938819 -121.786397 271 140ft 0kts
26-Jun-11 19:10 36.938819 -121.786397 271 140ft 0kts
26-Jun-11 19:11 36.938819 -121.786397 271 140ft 0kts
26-Jun-11 19:12 36.938819 -121.786397 271 140ft 0kts
26-Jun-11 19:13 36.938819 -121.786397 271 140ft 0kts
26-Jun-11 19:14 36.938819 -121.786397 271 140ft 0kts
26-Jun-11 19:15 36.938819 -121.786397 271 140ft 0kts
26-Jun-11 19:16 36.938819 -121.786397 271 140ft 0kts
26-Jun-11 19:17 36.938819 -121.786397 271 140ft 0kts
26-Jun-11 19:18 36.938819 -121.786397 271 140ft 0kts
26-Jun-11 19:19 36.938819 -121.786397 271 140ft 0kts
26-Jun-11 19:20 36.938819 -121.786397 271 140ft 0kts
26-Jun-11 19:21 36.938819 -121.786397 271 140ft 0kts
26-Jun-11 19:22 36.938819 -121.786397 271 140ft 0kts
26-Jun-11 19:23 36.938819 -121.786397 271 140ft 0kts
26-Jun-11 19:24 36.938819 -121.786397 271 140ft 0kts
26-Jun-11 19:25 36.938819 -121.786397 271 140ft 0kts
26-Jun-11 19:26 36.938819 -121.786397 271 140ft 0kts
26-Jun-11 19:27 36.938819 -121.786397 271 140ft 0kts
26-Jun-11 19:28 36.938819 -121.786397 271 140ft 0kts
26-Jun-11 19:29 36.938819 -121.786397 271 140ft 0kts
26-Jun-11 19:30 36.938819 -121.786397 271 140ft 0kts
26-Jun-11 19:31 36.938819 -121.786397 271 140ft 0kts
26-Jun-11 19:32 36.938819 -121.786397 271 140ft 0kts
26-Jun-11 19:33 36.938819 -121.786397 271 140ft 0kts
26-Jun-11 19:34 36.939107 -121.786948 308 140ft 3kts
26-Jun-11 19:35 36.933179 -121.792464 209 147ft 92kts
26-Jun-11 19:36 36.910107 -121.814906 186 843ft 114kts
26-Jun-11 19:37 36.884895 -121.797634 137 1851ft 105kts
26-Jun-11 19:38 36.862533 -121.772081 141 2650ft 117kts
26-Jun-11 19:39 36.833725 -121.744523 141 3365ft 146kts
26-Jun-11 19:40 36.800523 -121.710619 138 4066ft 161kts
26-Jun-11 19:41 36.764495 -121.676618 145 4770ft 165kts
26-Jun-11 19:42 36.725323 -121.646225 148 5465ft 167kts
26-Jun-11 19:43 36.684641 -121.617486 149 5977ft 174kts
26-Jun-11 19:44 36.644289 -121.592126 154 5979ft 155kts
26-Jun-11 19:45 36.611673 -121.574724 154 5981ft 146kts
26-Jun-11 19:46 36.578979 -121.554574 154 5973ft 119kts
26-Jun-11 19:47 36.552122 -121.531802 145 5979ft 117kts
26-Jun-11 19:48 36.529060 -121.506015 145 5974ft 108kts
26-Jun-11 19:49 36.507209 -121.481455 145 5981ft 104kts
26-Jun-11 19:50 36.485702 -121.457622 145 5980ft 104kts
26-Jun-11 19:51 36.469321 -121.464724 263 5990ft 79kts
26-Jun-11 19:52 36.472032 -121.492396 282 5971ft 81kts
26-Jun-11 19:53 36.478476 -121.519092 286 5931ft 79kts
26-Jun-11 19:54 36.486428 -121.548905 287 5280ft 98kts
26-Jun-11 19:55 36.495858 -121.580356 291 4630ft 98kts
26-Jun-11 19:56 36.506204 -121.611946 291 4157ft 98kts
26-Jun-11 19:57 36.517561 -121.641512 295 4199ft 95kts
26-Jun-11 19:58 36.530674 -121.671047 298 3838ft 97kts
26-Jun-11 19:59 36.543727 -121.700033 275 3150ft 96kts
26-Jun-11 20:00 36.549415 -121.732034 289 2534ft 96kts
26-Jun-11 20:01 36.559331 -121.762403 289 1687ft 91kts
26-Jun-11 20:02 36.567032 -121.789556 298 1299ft 119kts
26-Jun-11 20:03 36.580951 -121.826533 289 429ft 106kts
26-Jun-11 20:04 36.587848 -121.846968 243 175ft 8kts

Navigation Log

Ident Type
Flight plan parsing failed, navigation log unavailable